createdAt,value
2019-04-25T00:01:38.687Z,23.50
2019-04-25T00:04:07.540Z,21.57
2019-04-25T00:06:37.201Z,31.77
2019-04-25T00:09:11.846Z,27.43
2019-04-25T00:11:43.006Z,34.50
2019-04-25T00:14:13.230Z,30.80
2019-04-25T00:16:44.129Z,27.07
2019-04-25T00:19:13.361Z,29.23
2019-04-25T00:21:46.712Z,32.87
2019-04-25T00:24:32.976Z,33.67
2019-04-25T00:27:02.228Z,24.70
2019-04-25T00:29:31.894Z,28.50
2019-04-25T00:32:01.631Z,30.43
2019-04-25T00:34:31.645Z,23.07
2019-04-25T00:37:02.357Z,27.97
2019-04-25T00:39:31.930Z,28.97
2019-04-25T00:42:03.120Z,22.70
2019-04-25T00:44:31.955Z,29.43
2019-04-25T00:47:02.251Z,34.47
2019-04-25T00:49:32.238Z,29.13
2019-04-25T00:52:01.940Z,28.70
2019-04-25T00:54:33.066Z,32.13
2019-04-25T00:57:02.167Z,33.70
2019-04-25T00:59:35.236Z,33.73
2019-04-25T01:02:14.464Z,35.03
2019-04-25T01:04:43.829Z,31.83
2019-04-25T01:07:12.729Z,31.00
2019-04-25T01:09:42.347Z,30.20
2019-04-25T01:12:12.397Z,33.67
2019-04-25T01:14:42.005Z,33.70
2019-04-25T01:17:11.699Z,32.13
2019-04-25T01:19:40.543Z,26.20
2019-04-25T01:22:09.390Z,33.67
2019-04-25T01:24:37.958Z,31.97
2019-04-25T01:27:07.349Z,35.33
2019-04-25T01:29:35.898Z,38.40
2019-04-25T01:32:06.445Z,37.37
2019-04-25T01:34:54.632Z,32.83
2019-04-25T01:37:26.994Z,32.20
2019-04-25T01:39:57.302Z,30.97
2019-04-25T01:42:29.973Z,28.03
2019-04-25T01:44:58.956Z,34.00
2019-04-25T01:47:27.863Z,31.80
2019-04-25T01:49:56.716Z,32.63
2019-04-25T01:52:25.379Z,33.13
2019-04-25T01:54:55.673Z,30.73
2019-04-25T01:57:24.154Z,31.73
2019-04-25T01:59:54.080Z,34.63
2019-04-25T02:02:24.504Z,35.63
2019-04-25T02:04:55.082Z,36.40
2019-04-25T02:07:23.452Z,38.93
2019-04-25T02:09:54.762Z,32.80
2019-04-25T02:12:24.312Z,33.40
2019-04-25T02:14:54.622Z,36.20
2019-04-25T02:17:24.124Z,31.60
2019-04-25T02:19:55.210Z,38.53
2019-04-25T02:22:24.316Z,37.67
2019-04-25T02:24:54.952Z,35.40
2019-04-25T02:27:24.243Z,36.03
2019-04-25T02:29:55.208Z,32.70
2019-04-25T02:32:24.746Z,39.87
2019-04-25T02:34:58.917Z,31.00
2019-04-25T02:37:25.548Z,37.03
2019-04-25T02:39:57.234Z,33.53
2019-04-25T02:42:24.762Z,32.53
2019-04-25T02:45:08.658Z,43.27
2019-04-25T02:47:50.957Z,29.50
2019-04-25T02:50:21.439Z,32.93
2019-04-25T02:52:51.650Z,30.60
2019-04-25T02:55:31.150Z,31.57
2019-04-25T02:57:50.505Z,30.00
2019-04-25T03:00:26.500Z,30.77
2019-04-25T03:02:57.320Z,30.30
2019-04-25T03:05:25.657Z,43.53
2019-04-25T03:07:54.586Z,30.57
2019-04-25T03:10:26.646Z,34.83
2019-04-25T03:12:54.426Z,36.60
2019-04-25T03:15:24.390Z,30.00
2019-04-25T03:17:54.643Z,34.63
2019-04-25T03:20:45.146Z,31.53
2019-04-25T03:23:35.062Z,29.57
2019-04-25T03:26:05.814Z,37.33
2019-04-25T03:28:34.801Z,33.20
2019-04-25T03:31:08.128Z,32.50
2019-04-25T03:33:37.863Z,39.20
2019-04-25T03:36:05.541Z,22.50
2019-04-25T03:38:34.311Z,24.40
2019-04-25T03:41:04.443Z,29.20
2019-04-25T03:43:33.281Z,19.13
2019-04-25T03:46:04.590Z,20.03
2019-04-25T03:48:35.226Z,11.60
2019-04-25T03:51:04.571Z,12.93
2019-04-25T03:53:33.805Z,18.03
2019-04-25T03:56:04.760Z,13.70
2019-04-25T03:58:33.764Z,15.83
2019-04-25T04:01:03.910Z,12.27
2019-04-25T04:03:33.917Z,9.10
2019-04-25T04:06:04.345Z,7.87
2019-04-25T04:08:34.283Z,10.60
2019-04-25T04:11:07.122Z,9.70
2019-04-25T04:13:35.093Z,9.80
2019-04-25T04:16:05.151Z,10.63
2019-04-25T04:18:44.606Z,14.67
2019-04-25T04:24:14.117Z,12.30
2019-04-25T04:26:44.702Z,14.87
2019-04-25T04:29:14.130Z,11.77
2019-04-25T04:31:43.475Z,13.73
2019-04-25T04:34:14.335Z,7.97
2019-04-25T04:36:43.660Z,11.17
2019-04-25T04:39:13.862Z,9.03
2019-04-25T04:41:43.627Z,12.20
2019-04-25T04:44:14.000Z,17.33
2019-04-25T04:46:43.943Z,13.33
2019-04-25T04:49:14.183Z,14.30
2019-04-25T04:51:44.319Z,16.10
2019-04-25T04:54:13.560Z,9.60
2019-04-25T04:56:43.818Z,11.40
2019-04-25T04:59:14.309Z,9.53
2019-04-25T05:02:03.248Z,8.50
2019-04-25T05:04:43.592Z,8.73
2019-04-25T05:07:19.690Z,9.43
2019-04-25T05:09:48.312Z,7.30
2019-04-25T05:12:17.505Z,4.90
2019-04-25T05:14:46.223Z,3.23
2019-04-25T05:17:15.478Z,4.23
2019-04-25T05:19:45.006Z,5.43
2019-04-25T05:22:14.922Z,3.57
2019-04-25T05:24:43.872Z,3.67
2019-04-25T05:27:14.964Z,5.67
2019-04-25T05:29:43.941Z,2.77
2019-04-25T05:32:13.238Z,8.70
2019-04-25T05:34:44.110Z,3.43
2019-04-25T05:37:14.345Z,2.90
2019-04-25T05:39:43.522Z,1.90
2019-04-25T05:42:20.316Z,3.50
2019-04-25T05:44:48.899Z,3.43
2019-04-25T05:47:20.453Z,4.20
2019-04-25T05:49:49.156Z,3.90
2019-04-25T05:52:17.964Z,3.37
2019-04-25T05:54:47.037Z,2.60
2019-04-25T05:57:16.603Z,4.50
2019-04-25T05:59:45.396Z,1.07
2019-04-25T06:02:14.175Z,1.40
2019-04-25T06:04:43.592Z,1.60
2019-04-25T06:07:12.305Z,1.83
2019-04-25T06:09:44.360Z,1.40
2019-04-25T06:12:18.203Z,1.47
2019-04-25T06:14:47.037Z,2.30
2019-04-25T06:17:37.993Z,4.33
2019-04-25T06:20:09.341Z,6.53
2019-04-25T06:22:48.756Z,7.80
2019-04-25T06:25:21.086Z,6.00
2019-04-25T06:27:56.396Z,4.30
2019-04-25T06:30:24.939Z,2.80
2019-04-25T06:32:53.515Z,1.93
2019-04-25T06:35:24.717Z,1.80
2019-04-25T06:37:53.689Z,3.10
2019-04-25T06:40:24.163Z,3.47
2019-04-25T06:42:53.561Z,1.73
2019-04-25T06:45:45.321Z,3.93
2019-04-25T06:48:18.568Z,3.97
2019-04-25T06:50:47.049Z,2.40
2019-04-25T06:53:18.159Z,4.20
2019-04-25T06:55:46.737Z,3.03
2019-04-25T06:58:15.275Z,7.77
2019-04-25T07:00:57.473Z,4.30
2019-04-25T07:03:15.498Z,3.67
2019-04-25T07:05:44.384Z,7.23
2019-04-25T07:08:13.355Z,3.13
2019-04-25T07:10:42.078Z,1.20
2019-04-25T07:13:10.623Z,2.33
2019-04-25T07:15:39.208Z,1.23
2019-04-25T07:18:07.779Z,3.57
2019-04-25T07:20:36.364Z,3.67
2019-04-25T07:23:05.034Z,4.50
2019-04-25T07:25:36.633Z,3.37
2019-04-25T07:28:27.317Z,3.23
2019-04-25T07:30:58.292Z,8.53
2019-04-25T07:33:44.504Z,6.93
2019-04-25T07:36:13.853Z,7.93
2019-04-25T07:38:43.549Z,2.70
2019-04-25T07:41:14.656Z,12.33
2019-04-25T07:43:43.337Z,2.63
2019-04-25T07:46:13.473Z,2.93
2019-04-25T07:48:43.658Z,5.93
2019-04-25T07:51:16.187Z,3.73
2019-04-25T07:53:43.639Z,6.00
2019-04-25T07:56:14.092Z,4.70
2019-04-25T07:58:50.577Z,3.97
2019-04-25T08:01:15.063Z,2.13
2019-04-25T08:03:44.059Z,8.60
2019-04-25T08:06:13.843Z,5.13
2019-04-25T08:08:43.601Z,5.40
2019-04-25T08:11:14.023Z,1.47
2019-04-25T08:13:50.399Z,1.70
2019-04-25T08:16:20.603Z,5.97
2019-04-25T08:18:49.897Z,1.53
2019-04-25T08:21:18.491Z,3.07
2019-04-25T08:23:47.845Z,2.90
2019-04-25T08:26:16.503Z,3.20
2019-04-25T08:28:54.397Z,1.20
2019-04-25T08:31:15.255Z,1.77
2019-04-25T08:33:46.485Z,1.57
2019-04-25T08:36:14.056Z,0.80
2019-04-25T08:38:44.545Z,1.43
2019-04-25T08:41:14.022Z,1.17
2019-04-25T08:43:43.665Z,1.20
2019-04-25T08:46:13.952Z,1.10
2019-04-25T08:49:02.285Z,1.67
2019-04-25T08:51:47.583Z,0.63
2019-04-25T08:54:20.227Z,0.60
2019-04-25T08:56:48.812Z,0.73
2019-04-25T08:59:41.928Z,1.43
2019-04-25T09:02:34.900Z,2.10
2019-04-25T09:05:24.209Z,2.50
2019-04-25T09:07:54.361Z,0.63
2019-04-25T09:10:23.777Z,1.20
2019-04-25T09:12:53.775Z,1.80
2019-04-25T09:15:23.989Z,0.60
2019-04-25T09:17:54.642Z,1.53
2019-04-25T09:20:23.587Z,1.53
2019-04-25T09:22:54.390Z,9.70
2019-04-25T09:25:23.911Z,0.80
2019-04-25T09:27:54.184Z,0.60
2019-04-25T09:30:24.087Z,0.90
2019-04-25T09:32:54.352Z,0.73
2019-04-25T09:35:23.647Z,3.27
2019-04-25T09:37:53.555Z,2.83
2019-04-25T09:40:24.005Z,1.03
2019-04-25T09:42:53.760Z,0.70
2019-04-25T09:45:26.919Z,2.30
2019-04-25T09:47:57.212Z,1.83
2019-04-25T09:50:33.948Z,1.40
2019-04-25T09:53:04.471Z,2.40
2019-04-25T09:55:46.813Z,5.43
2019-04-25T09:58:23.850Z,2.63
2019-04-25T10:00:56.966Z,0.57
2019-04-25T10:03:27.055Z,0.70
2019-04-25T10:05:55.616Z,4.50
2019-04-25T10:08:24.279Z,1.90
2019-04-25T10:10:53.847Z,0.70
2019-04-25T10:13:23.517Z,1.53
2019-04-25T10:15:56.535Z,1.27
2019-04-25T10:18:25.187Z,1.03
2019-04-25T10:20:54.222Z,0.60
2019-04-25T10:23:24.061Z,1.93
2019-04-25T10:25:53.797Z,0.67
2019-04-25T10:28:23.374Z,1.70
2019-04-25T10:30:53.162Z,1.23
2019-04-25T10:33:24.397Z,1.30
2019-04-25T10:35:58.862Z,0.83
2019-04-25T10:38:28.815Z,2.27
2019-04-25T10:40:57.812Z,5.07
2019-04-25T10:43:26.429Z,1.23
2019-04-25T10:45:55.217Z,1.03
2019-04-25T10:48:24.154Z,2.60
2019-04-25T10:50:53.894Z,2.10
2019-04-25T10:53:23.258Z,1.97
2019-04-25T10:55:53.782Z,1.07
2019-04-25T10:58:22.480Z,2.50
2019-04-25T11:00:52.909Z,3.80
2019-04-25T11:03:35.322Z,1.27
2019-04-25T11:06:04.311Z,1.50
2019-04-25T11:08:34.067Z,1.43
2019-04-25T11:11:03.727Z,0.60
2019-04-25T11:13:33.960Z,3.07
2019-04-25T11:16:03.537Z,5.43
2019-04-25T11:18:33.896Z,3.10
2019-04-25T11:21:05.592Z,5.50
2019-04-25T11:23:32.800Z,2.93
2019-04-25T11:26:01.378Z,1.10
2019-04-25T11:28:29.935Z,0.90
2019-04-25T11:30:58.589Z,0.73
2019-04-25T11:33:27.758Z,2.33
2019-04-25T11:35:56.583Z,2.07
2019-04-25T11:38:42.679Z,2.30
2019-04-25T11:41:16.591Z,1.70
2019-04-25T11:43:46.302Z,1.90
2019-04-25T11:46:16.710Z,3.03
2019-04-25T11:48:46.318Z,0.40
2019-04-25T11:51:15.365Z,1.23
2019-04-25T11:53:45.100Z,3.67
2019-04-25T11:56:14.427Z,0.97
2019-04-25T11:58:46.832Z,0.67
2019-04-25T12:01:17.598Z,2.63
2019-04-25T12:03:47.932Z,1.00
2019-04-25T12:06:16.877Z,2.50
2019-04-25T12:08:46.802Z,1.53
2019-04-25T12:11:15.788Z,1.70
2019-04-25T12:13:45.993Z,1.60
2019-04-25T12:16:15.017Z,2.20
2019-04-25T12:18:46.549Z,7.93
2019-04-25T12:21:13.862Z,1.20
2019-04-25T12:23:45.036Z,2.57
2019-04-25T12:26:14.189Z,2.70
2019-04-25T12:28:42.783Z,1.90
2019-04-25T12:31:17.139Z,1.20
2019-04-25T12:33:47.625Z,4.10
2019-04-25T12:36:15.952Z,0.93
2019-04-25T12:38:46.049Z,2.83
2019-04-25T12:41:14.755Z,0.60
2019-04-25T12:43:45.753Z,3.23
2019-04-25T12:46:18.584Z,2.10
2019-04-25T12:48:47.660Z,1.90
2019-04-25T12:51:16.303Z,5.90
2019-04-25T12:53:46.473Z,0.63
2019-04-25T12:56:15.279Z,0.73
2019-04-25T12:58:43.849Z,2.77
2019-04-25T13:01:13.139Z,0.80
2019-04-25T13:03:41.788Z,1.37
2019-04-25T13:06:10.468Z,2.60
2019-04-25T13:08:39.002Z,0.60
2019-04-25T13:11:10.515Z,2.93
2019-04-25T13:13:38.694Z,0.90
2019-04-25T13:16:07.203Z,0.87
2019-04-25T13:18:35.691Z,1.73
2019-04-25T13:21:05.416Z,2.30
2019-04-25T13:23:34.327Z,1.13
2019-04-25T13:26:05.279Z,2.63
2019-04-25T13:28:34.883Z,1.80
2019-04-25T13:31:21.248Z,2.30
2019-04-25T13:33:54.479Z,1.43
2019-04-25T13:36:24.103Z,1.27
2019-04-25T13:38:54.007Z,3.50
2019-04-25T13:41:22.812Z,0.90
2019-04-25T13:43:53.093Z,1.13
2019-04-25T13:46:24.632Z,0.50
2019-04-25T13:48:51.927Z,1.27
2019-04-25T13:51:20.681Z,2.10
2019-04-25T13:53:49.289Z,0.97
2019-04-25T13:56:18.113Z,0.97
2019-04-25T13:58:46.685Z,1.50
2019-04-25T14:01:17.559Z,0.63
2019-04-25T14:03:46.286Z,0.80
2019-04-25T14:06:14.937Z,1.73
2019-04-25T14:08:51.038Z,2.93
2019-04-25T14:11:20.580Z,0.97
2019-04-25T14:13:49.859Z,1.70
2019-04-25T14:16:30.077Z,1.07
2019-04-25T14:19:00.523Z,0.70
2019-04-25T14:21:29.276Z,1.00
2019-04-25T14:23:57.837Z,0.87
2019-04-25T14:26:27.073Z,1.00
2019-04-25T14:28:55.668Z,2.53
2019-04-25T14:31:41.237Z,0.90
2019-04-25T14:33:55.346Z,1.00
2019-04-25T14:36:25.802Z,1.40
2019-04-25T14:38:54.202Z,4.93
2019-04-25T14:41:23.684Z,3.13
2019-04-25T14:43:52.524Z,1.00
2019-04-25T14:46:21.196Z,1.13
2019-04-25T14:48:50.313Z,0.50
2019-04-25T14:51:19.128Z,1.57
2019-04-25T14:53:47.684Z,2.53
2019-04-25T14:56:17.951Z,0.90
2019-04-25T14:58:46.919Z,0.90
2019-04-25T15:01:17.244Z,1.83
2019-04-25T15:03:45.876Z,3.07
2019-04-25T15:06:14.598Z,1.00
2019-04-25T15:08:43.207Z,5.13
2019-04-25T15:11:11.762Z,3.10
2019-04-25T15:13:40.291Z,8.90
2019-04-25T15:16:09.012Z,1.33
2019-04-25T15:18:46.377Z,0.93
2019-04-25T15:21:09.358Z,3.80
2019-04-25T15:23:37.895Z,1.47
2019-04-25T15:26:06.566Z,9.33
2019-04-25T15:28:35.153Z,2.20
2019-04-25T15:31:03.754Z,0.50
2019-04-25T15:33:33.077Z,1.03
2019-04-25T15:36:21.631Z,3.90
2019-04-25T15:38:51.799Z,1.90
2019-04-25T15:41:25.029Z,2.77
2019-04-25T15:44:11.570Z,2.13
2019-04-25T15:46:44.569Z,2.33
2019-04-25T15:49:14.693Z,7.20
2019-04-25T15:51:43.270Z,0.70
2019-04-25T15:54:11.826Z,3.60
2019-04-25T15:56:40.413Z,4.40
2019-04-25T15:59:09.159Z,3.20
2019-04-25T16:01:37.792Z,2.77
2019-04-25T16:04:06.345Z,1.60
2019-04-25T16:06:34.878Z,0.63
2019-04-25T16:09:05.475Z,2.23
2019-04-25T16:11:34.942Z,1.33
2019-04-25T16:14:04.081Z,3.07
2019-04-25T16:16:33.256Z,0.90
2019-04-25T16:19:01.969Z,2.17
2019-04-25T16:21:31.172Z,3.43
2019-04-25T16:24:00.074Z,1.77
2019-04-25T16:26:29.447Z,1.70
2019-04-25T16:28:58.131Z,1.03
2019-04-25T16:31:26.744Z,2.67
2019-04-25T16:33:55.353Z,2.50
2019-04-25T16:36:23.885Z,3.00
2019-04-25T16:38:52.480Z,1.80
2019-04-25T16:41:21.736Z,1.97
2019-04-25T16:43:51.947Z,1.40
2019-04-25T16:46:21.297Z,4.73
2019-04-25T16:48:49.906Z,4.53
2019-04-25T16:51:18.790Z,1.17
2019-04-25T16:53:47.359Z,6.10
2019-04-25T16:56:15.961Z,1.20
2019-04-25T16:58:44.705Z,2.17
2019-04-25T17:01:14.295Z,7.70
2019-04-25T17:03:43.670Z,1.97
2019-04-25T17:06:12.317Z,1.00
2019-04-25T17:08:40.877Z,2.30
2019-04-25T17:11:11.862Z,1.23
2019-04-25T17:13:42.597Z,3.90
2019-04-25T17:16:15.784Z,1.63
2019-04-25T17:18:46.019Z,3.07
2019-04-25T17:21:14.570Z,1.87
2019-04-25T17:23:43.656Z,1.70
2019-04-25T17:26:12.680Z,2.40
2019-04-25T17:28:42.986Z,3.03
2019-04-25T17:31:13.275Z,1.83
2019-04-25T17:33:47.456Z,1.47
2019-04-25T17:36:17.663Z,2.40
2019-04-25T17:38:47.973Z,0.87
2019-04-25T17:41:16.552Z,2.73
2019-04-25T17:43:45.135Z,1.13
2019-04-25T17:46:15.361Z,1.17
2019-04-25T17:48:43.968Z,1.53
2019-04-25T17:51:12.542Z,2.60
2019-04-25T17:53:41.267Z,5.00
2019-04-25T17:56:09.927Z,0.73
2019-04-25T17:58:39.151Z,1.90
2019-04-25T18:01:08.870Z,1.00
2019-04-25T18:03:37.475Z,6.13
2019-04-25T18:06:06.055Z,0.93
2019-04-25T18:08:35.612Z,1.73
2019-04-25T18:11:04.755Z,2.53
2019-04-25T18:13:34.366Z,2.33
2019-04-25T18:16:07.733Z,9.23
2019-04-25T18:18:49.831Z,4.23
2019-04-25T18:21:18.374Z,1.57
2019-04-25T18:23:48.607Z,2.87
2019-04-25T18:26:35.375Z,2.57
2019-04-25T18:29:08.150Z,3.70
2019-04-25T18:31:36.745Z,1.37
2019-04-25T18:34:07.145Z,2.60
2019-04-25T18:36:47.229Z,1.10
2019-04-25T18:39:23.536Z,1.63
2019-04-25T18:41:53.782Z,9.67
2019-04-25T18:44:22.356Z,3.23
2019-04-25T18:46:51.163Z,4.93
2019-04-25T18:49:20.536Z,5.23
2019-04-25T18:51:57.828Z,6.87
2019-04-25T18:54:21.495Z,2.60
2019-04-25T18:58:20.028Z,3.07
2019-04-25T19:01:06.792Z,3.37
2019-04-25T19:03:55.428Z,3.83
2019-04-25T19:06:25.728Z,5.43
2019-04-25T19:08:57.535Z,1.67
2019-04-25T19:11:31.373Z,4.43
2019-04-25T19:14:01.764Z,1.40
